Time;durP1;ratioP1;P1;durP2;ratioP2;P2;SDS_P1;SDS_P2;PMS_P1;PMS_P2;Temp;Humidity;BMP_temperature;BMP_pressure;BME280_temperature;BME280_humidity;BME280_pressure;Samples;Min_cycle;Max_cycle;Signal;HPM_P1;HPM_P2
2021/04/02 00:01:22;;;;;;;74.93;28.60;;;;;;;13.45;69.22;96720.00;4954563;28;20468;-69
2021/04/02 00:03:49;;;;;;;63.37;27.50;;;;;;;13.43;69.29;96718.44;4939193;28;20497;-69
2021/04/02 00:06:17;;;;;;;72.87;27.20;;;;;;;13.43;69.65;96719.25;4941252;28;20819;-72
2021/04/02 00:08:43;;;;;;;58.90;28.83;;;;;;;13.37;69.62;96724.09;4947158;28;20470;-71
2021/04/02 00:11:12;;;;;;;67.37;27.77;;;;;;;13.39;69.46;96719.56;4963465;28;20516;-71
2021/04/02 00:13:41;;;;;;;73.47;28.63;;;;;;;13.25;69.85;96720.56;4946529;28;20520;-72
2021/04/02 00:16:10;;;;;;;66.17;28.70;;;;;;;13.15;70.48;96714.31;4951532;28;20449;-70
2021/04/02 00:18:38;;;;;;;66.60;29.27;;;;;;;13.12;70.09;96716.31;4947465;28;20457;-70
2021/04/02 00:21:07;;;;;;;81.03;29.40;;;;;;;13.08;70.20;96722.69;4950205;28;20431;-70
2021/04/02 00:23:35;;;;;;;70.50;28.77;;;;;;;12.95;70.79;96706.19;4950357;28;21003;-70
2021/04/02 00:26:05;;;;;;;65.63;26.77;;;;;;;13.10;70.56;96720.78;4963620;28;20518;-71
2021/04/02 00:28:32;;;;;;;73.53;28.17;;;;;;;13.03;70.58;96714.31;4967287;28;20465;-70
2021/04/02 00:31:00;;;;;;;63.57;28.53;;;;;;;13.07;70.60;96710.56;4959227;28;20429;-70
2021/04/02 00:33:30;;;;;;;71.87;30.27;;;;;;;12.99;71.20;96708.47;4957360;28;20461;-71
2021/04/02 00:35:57;;;;;;;74.67;29.03;;;;;;;13.03;nan;96711.72;4969217;28;20761;-70
2021/04/02 00:38:24;;;;;;;65.40;30.57;;;;;;;12.97;70.88;96712.97;4968272;28;21043;-71
2021/04/02 00:40:54;;;;;;;57.97;25.83;;;;;;;12.89;70.71;96706.56;4967149;28;20467;-70
2021/04/02 00:43:26;;;;;;;66.70;28.10;;;;;;;12.88;70.82;96704.91;4966930;28;20979;-69
2021/04/02 00:45:53;;;;;;;74.00;27.53;;;;;;;12.88;70.87;96710.97;4969272;28;20441;-69
2021/04/02 00:48:20;;;;;;;57.33;25.57;;;;;;;12.80;71.01;96705.44;4975374;28;20531;-70
2021/04/02 00:50:50;;;;;;;66.43;27.90;;;;;;;12.66;71.38;96694.25;4966564;28;20456;-70
2021/04/02 00:53:19;;;;;;;60.63;26.47;;;;;;;12.62;71.85;96697.19;4966107;28;20785;-70
2021/04/02 00:55:46;;;;;;;64.43;28.57;;;;;;;12.69;71.64;96697.50;4964752;28;20516;-69
2021/04/02 00:58:16;;;;;;;67.60;28.87;;;;;;;12.72;70.93;96696.47;4957237;28;20948;-70
2021/04/02 01:00:43;;;;;;;90.47;27.70;;;;;;;12.70;70.71;96700.97;4958180;28;20425;-72
2021/04/02 01:03:11;;;;;;;63.60;27.60;;;;;;;12.68;71.31;96702.84;4958477;28;20529;-71
2021/04/02 01:05:40;;;;;;;63.07;27.20;;;;;;;12.68;71.38;96697.63;4957052;28;20430;-71
2021/04/02 01:08:11;;;;;;;65.03;27.90;;;;;;;12.65;71.44;96681.34;4966909;28;20955;-70
2021/04/02 01:10:39;;;;;;;65.17;27.20;;;;;;;12.68;71.57;96699.38;4962915;28;20465;-70
2021/04/02 01:13:07;;;;;;;65.47;27.87;;;;;;;12.53;71.40;96703.91;4965146;28;20793;-70
2021/04/02 01:15:41;;;;;;;75.33;29.30;;;;;;;12.54;71.46;96695.13;4964434;28;20619;-73
2021/04/02 01:18:13;;;;;;;62.77;27.13;;;;;;;12.43;71.43;96692.38;4968317;28;20478;-72
2021/04/02 01:20:41;;;;;;;64.63;28.60;;;;;;;12.31;72.14;96690.63;4971833;28;20425;-71
2021/04/02 01:23:12;;;;;;;61.93;27.80;;;;;;;12.32;72.23;96694.91;4964955;28;20551;-70
2021/04/02 01:25:48;;;;;;;66.40;26.93;;;;;;;12.26;72.01;96700.53;4954400;28;20473;-69
2021/04/02 01:28:48;;;;;;;63.40;27.80;;;;;;;12.22;72.42;96700.84;4965842;28;20856;-70
2021/04/02 01:31:16;;;;;;;65.80;27.53;;;;;;;12.18;72.90;96705.41;4968080;28;20488;-73
2021/04/02 01:33:44;;;;;;;71.57;30.60;;;;;;;12.04;72.88;96694.22;4966520;28;20468;-69
2021/04/02 01:36:13;;;;;;;66.37;26.00;;;;;;;12.08;72.86;96699.13;4966182;28;20779;-70
2021/04/02 01:38:50;;;;;;;67.00;27.97;;;;;;;12.03;72.97;96701.22;4968240;28;20476;-72
2021/04/02 01:41:22;;;;;;;58.37;25.83;;;;;;;12.00;73.34;96706.63;4966894;28;20467;-69
2021/04/02 01:43:54;;;;;;;62.83;28.90;;;;;;;12.06;73.32;96702.78;4963862;28;20991;-68
2021/04/02 01:46:22;;;;;;;61.33;27.63;;;;;;;12.04;73.26;96705.50;4965647;28;20492;-70
2021/04/02 01:48:53;;;;;;;60.67;26.77;;;;;;;12.06;73.39;96708.84;4967595;28;20469;-70
2021/04/02 01:51:22;;;;;;;62.50;27.33;;;;;;;11.96;73.74;96701.72;4979500;28;20441;-69
2021/04/02 01:53:54;;;;;;;56.03;27.20;;;;;;;11.85;73.70;96702.41;4967797;28;20476;-68
2021/04/02 01:56:22;;;;;;;62.33;27.23;;;;;;;11.78;74.21;96708.97;4965415;28;20987;-68
2021/04/02 01:58:52;;;;;;;71.80;29.40;;;;;;;11.73;74.56;96711.03;4966802;28;20543;-70
2021/04/02 02:01:23;;;;;;;64.20;29.40;;;;;;;11.73;74.56;96705.84;4966577;28;20460;-68
2021/04/02 02:03:54;;;;;;;52.83;26.10;;;;;;;11.73;74.22;96711.03;4964787;28;20732;-69
2021/04/02 02:06:23;;;;;;;70.80;26.27;;;;;;;11.59;74.72;96712.84;4965136;28;21104;-69
2021/04/02 02:08:52;;;;;;;66.80;27.13;;;;;;;11.63;74.39;96712.56;4968653;28;20480;-69
2021/04/02 02:11:20;;;;;;;54.30;25.30;;;;;;;11.45;75.09;96711.09;4969542;28;21066;-69
2021/04/02 02:13:52;;;;;;;62.70;27.17;;;;;;;11.49;75.14;96716.97;4967418;28;20530;-70
2021/04/02 02:16:22;;;;;;;53.97;25.80;;;;;;;11.45;74.97;96720.69;4973113;28;20443;-71
2021/04/02 02:18:56;;;;;;;64.83;25.40;;;;;;;11.41;74.71;96720.03;4986003;28;21211;-71
2021/04/02 02:21:27;;;;;;;57.73;25.47;;;;;;;11.27;74.81;96720.06;4957619;28;20454;-71
2021/04/02 02:23:56;;;;;;;56.17;25.47;;;;;;;11.20;74.75;96726.59;4965490;28;20483;-71
2021/04/02 02:26:23;;;;;;;53.37;25.63;;;;;;;11.22;74.70;96729.09;4959296;28;20996;-72
2021/04/02 02:28:53;;;;;;;53.03;25.90;;;;;;;11.25;75.05;96723.69;4958621;28;20489;-71
2021/04/02 02:31:20;;;;;;;56.13;25.93;;;;;;;11.20;75.13;96726.59;4962323;28;20827;-71
2021/04/02 02:33:47;;;;;;;59.60;26.00;;;;;;;11.10;75.32;96725.50;4969377;28;20509;-71
2021/04/02 02:36:14;;;;;;;57.07;23.53;;;;;;;10.92;75.61;96724.03;4959961;28;20778;-71
2021/04/02 02:38:42;;;;;;;58.80;25.73;;;;;;;10.92;76.20;96723.19;4959570;28;20833;-69
2021/04/02 02:41:09;;;;;;;58.37;24.63;;;;;;;10.87;76.24;96720.88;4959844;28;20870;-70
2021/04/02 02:43:36;;;;;;;65.77;26.97;;;;;;;10.83;76.55;96721.97;4968381;28;20483;-70
2021/04/02 02:46:04;;;;;;;54.30;25.17;;;;;;;10.79;76.70;96723.09;4969754;28;20456;-70
2021/04/02 02:48:31;;;;;;;55.33;26.73;;;;;;;10.74;76.79;96722.53;4968511;28;21250;-69
2021/04/02 02:50:59;;;;;;;63.70;28.03;;;;;;;10.71;76.92;96729.69;4968211;28;20902;-70
2021/04/02 02:53:29;;;;;;;65.20;27.33;;;;;;;10.62;77.49;96722.44;4969852;28;20488;-70
2021/04/02 02:55:58;;;;;;;58.67;25.73;;;;;;;10.55;77.65;96727.16;4969656;28;21001;-70
2021/04/02 02:58:26;;;;;;;56.83;27.20;;;;;;;10.62;77.83;96731.06;4965601;28;20957;-68
2021/04/02 03:00:55;;;;;;;58.70;26.37;;;;;;;10.62;77.17;96733.69;4970291;28;20510;-69
2021/04/02 03:03:26;;;;;;;62.33;27.70;;;;;;;10.55;77.42;96732.38;4968607;28;21002;-70
2021/04/02 03:05:58;;;;;;;61.13;25.23;;;;;;;10.45;77.45;96728.66;4969249;28;20843;-71
2021/04/02 03:08:28;;;;;;;65.53;25.47;;;;;;;10.43;77.51;96732.25;4970203;28;20789;-71
2021/04/02 03:10:58;;;;;;;51.70;24.50;;;;;;;10.40;77.79;96733.28;4967345;28;20449;-69
2021/04/02 03:13:26;;;;;;;60.90;24.77;;;;;;;10.35;77.62;96729.28;4968473;28;20488;-68
2021/04/02 03:15:58;;;;;;;53.20;21.67;;;;;;;10.30;77.88;96729.56;4967321;28;20924;-68
2021/04/02 03:18:29;;;;;;;45.50;22.17;;;;;;;10.33;77.89;96734.56;4970845;28;20883;-69
2021/04/02 03:20:59;;;;;;;52.53;19.50;;;;;;;10.31;77.67;96733.81;4960192;28;20532;-69
2021/04/02 03:23:26;;;;;;;41.17;18.83;;;;;;;10.30;77.41;96731.31;4958007;28;21190;-72
2021/04/02 03:25:54;;;;;;;46.53;17.93;;;;;;;10.25;77.50;96728.16;4957831;28;20915;-72
2021/04/02 03:28:22;;;;;;;30.27;14.70;;;;;;;10.20;77.65;96722.38;4968411;28;20965;-71
2021/04/02 03:30:49;;;;;;;31.67;15.70;;;;;;;10.11;77.98;96723.75;4968858;28;20837;-71
2021/04/02 03:33:19;;;;;;;49.57;18.80;;;;;;;10.05;78.20;96723.28;4983683;28;20530;-73
2021/04/02 03:35:48;;;;;;;33.60;17.80;;;;;;;10.01;78.09;96725.19;4969568;28;20813;-70
2021/04/02 03:38:17;;;;;;;36.03;15.03;;;;;;;9.97;77.80;96730.66;4966183;28;20988;-70
2021/04/02 03:40:46;;;;;;;22.77;12.23;;;;;;;10.06;76.92;96732.75;4967298;28;20441;-70
2021/04/02 03:43:14;;;;;;;29.13;11.37;;;;;;;10.01;76.10;96730.38;4965767;28;20457;-72
2021/04/02 03:45:47;;;;;;;24.50;11.33;;;;;;;9.89;75.73;96725.06;4970052;28;20806;-70
2021/04/02 03:48:15;;;;;;;33.83;11.30;;;;;;;9.74;76.62;96726.75;4965876;28;20862;-69
2021/04/02 03:50:51;;;;;;;10.40;6.77;;;;;;;9.68;76.33;96737.50;4967161;28;20787;-70
2021/04/02 03:53:24;;;;;;;17.90;7.60;;;;;;;9.68;75.88;96734.91;4962568;28;20777;-71
2021/04/02 03:55:53;;;;;;;14.60;7.30;;;;;;;9.66;75.94;96734.13;4969844;28;20445;-70
2021/04/02 03:58:25;;;;;;;14.27;6.80;;;;;;;9.66;75.92;96731.53;4967412;28;20957;-70
2021/04/02 04:00:56;;;;;;;27.60;7.13;;;;;;;9.63;76.00;96744.72;4967037;28;20535;-69
2021/04/02 04:03:24;;;;;;;15.90;6.37;;;;;;;9.66;75.93;96747.13;4967379;28;20477;-69
2021/04/02 04:05:55;;;;;;;12.70;6.73;;;;;;;9.69;75.79;96740.94;4965556;28;20796;-68
2021/04/02 04:08:24;;;;;;;13.87;6.57;;;;;;;9.77;75.50;96747.38;4966252;28;20951;-70
2021/04/02 04:10:53;;;;;;;15.33;6.30;;;;;;;9.66;75.72;96728.94;4968878;28;20893;-69
2021/04/02 04:13:24;;;;;;;17.60;7.80;;;;;;;9.82;75.28;96754.91;4967291;28;20973;-69
2021/04/02 04:15:53;;;;;;;18.97;9.10;;;;;;;9.92;75.16;96756.06;4970384;28;20437;-69
2021/04/02 04:18:22;;;;;;;27.97;10.03;;;;;;;9.87;75.49;96750.31;4970817;28;21035;-69
2021/04/02 04:20:53;;;;;;;18.13;9.20;;;;;;;9.85;75.90;96755.59;4961873;28;20444;-71
2021/04/02 04:23:22;;;;;;;15.40;8.43;;;;;;;9.72;75.91;96752.00;4969681;28;20469;-69
2021/04/02 04:25:52;;;;;;;17.53;10.00;;;;;;;9.60;76.35;96755.25;4968199;28;20566;-69
2021/04/02 04:28:21;;;;;;;24.20;9.57;;;;;;;9.44;76.74;96754.44;4963950;28;21214;-71
2021/04/02 04:30:50;;;;;;;24.63;9.83;;;;;;;9.37;77.25;96753.09;4969750;28;20440;-72
2021/04/02 04:33:19;;;;;;;25.17;9.03;;;;;;;9.37;77.14;96752.28;4966433;28;20469;-71
2021/04/02 04:35:47;;;;;;;20.80;9.50;;;;;;;9.31;77.24;96753.44;4968494;28;20829;-70
2021/04/02 04:38:17;;;;;;;19.50;8.10;;;;;;;9.17;76.95;96755.09;4956445;28;20485;-69
2021/04/02 04:40:48;;;;;;;16.80;8.67;;;;;;;9.13;76.51;96751.84;4957909;28;20433;-70
2021/04/02 04:43:17;;;;;;;18.50;8.80;;;;;;;9.13;76.66;96757.03;4964587;28;21053;-70
2021/04/02 04:45:44;;;;;;;24.30;9.50;;;;;;;9.18;76.42;96755.03;4964622;28;20443;-69
2021/04/02 04:48:12;;;;;;;21.43;8.60;;;;;;;9.05;76.81;96756.59;4968214;28;20467;-69
2021/04/02 04:50:40;;;;;;;25.57;8.20;;;;;;;9.05;76.88;96753.16;4969927;28;20804;-69
2021/04/02 04:53:12;;;;;;;19.17;8.40;;;;;;;9.03;76.59;96750.66;4966293;28;20465;-69
2021/04/02 04:55:41;;;;;;;21.03;8.40;;;;;;;8.93;75.95;96746.88;4967792;28;20503;-69
2021/04/02 04:58:12;;;;;;;19.03;8.80;;;;;;;8.70;76.45;96749.00;4982200;28;20944;-69
2021/04/02 05:00:47;;;;;;;19.20;8.17;;;;;;;8.39;77.71;96744.56;4979783;28;20457;-70
2021/04/02 05:03:18;;;;;;;18.30;8.43;;;;;;;8.23;78.73;96752.38;4965410;28;20941;-70
2021/04/02 05:05:48;;;;;;;16.40;8.27;;;;;;;7.91;80.29;96748.75;4966962;28;20783;-69
2021/04/02 05:08:34;;;;;;;19.20;6.80;;;;;;;7.62;81.96;96754.50;4967064;28;20856;-70
2021/04/02 05:11:01;;;;;;;15.70;7.37;;;;;;;7.70;82.32;96751.50;4966079;28;21019;-69
2021/04/02 05:13:33;;;;;;;15.33;7.20;;;;;;;7.94;82.25;96747.75;4964159;28;20472;-68
2021/04/02 05:16:00;;;;;;;15.37;7.90;;;;;;;8.02;81.79;96737.84;4964233;28;21108;-69
2021/04/02 05:18:28;;;;;;;13.07;6.90;;;;;;;8.11;81.45;96748.59;4968095;28;20956;-70
2021/04/02 05:20:56;;;;;;;17.93;6.57;;;;;;;8.18;80.57;96739.56;4967071;28;20801;-70
2021/04/02 05:23:23;;;;;;;11.73;5.72;;;;;;;8.23;79.79;96748.00;4965502;28;21132;-70
2021/04/02 05:25:50;;;;;;;13.27;6.10;;;;;;;8.24;79.65;96754.03;4966132;28;20221;-69
2021/04/02 05:28:18;;;;;;;11.90;6.23;;;;;;;8.31;79.15;96756.22;4968841;28;20862;-70
2021/04/02 05:30:46;;;;;;;18.30;6.30;;;;;;;8.46;78.80;96751.09;4967761;28;20449;-72
2021/04/02 05:33:14;;;;;;;10.70;5.07;;;;;;;8.41;78.34;96757.47;4964696;28;20480;-69
2021/04/02 05:35:41;;;;;;;13.07;6.00;;;;;;;8.39;78.20;96760.13;4963587;28;20440;-70
2021/04/02 05:38:08;;;;;;;9.73;4.97;;;;;;;8.17;78.09;96757.81;4968187;28;20999;-70
2021/04/02 05:41:00;;;;;;;28.23;5.40;;;;;;;8.18;79.04;96762.09;4964801;28;20453;-70
2021/04/02 05:43:33;;;;;;;20.80;5.70;;;;;;;8.18;78.28;96753.38;4966789;28;20532;-69
2021/04/02 05:46:04;;;;;;;13.47;6.17;;;;;;;8.27;77.91;96762.50;4980806;28;20459;-70
2021/04/02 05:48:32;;;;;;;17.10;5.57;;;;;;;8.32;77.79;96762.25;4963843;28;20461;-69
2021/04/02 05:51:00;;;;;;;16.67;6.83;;;;;;;8.22;77.54;96766.22;4956887;28;20445;-69
2021/04/02 05:53:29;;;;;;;12.27;6.00;;;;;;;8.28;76.70;96762.41;4955995;28;20496;-69
2021/04/02 05:56:01;;;;;;;13.37;5.37;;;;;;;8.26;76.59;96772.94;4966531;28;20448;-69
2021/04/02 05:58:28;;;;;;;13.00;4.83;;;;;;;8.11;76.82;96763.31;4965552;28;20971;-71
2021/04/02 06:00:56;;;;;;;16.00;5.32;;;;;;;8.44;75.80;96768.50;4957006;28;20955;-69
2021/04/02 06:03:25;;;;;;;9.57;4.07;;;;;;;8.76;74.34;96770.28;4958866;28;20282;-70
2021/04/02 06:05:52;;;;;;;17.73;4.43;;;;;;;8.86;72.92;96774.06;4956008;28;20434;-69
2021/04/02 06:08:19;;;;;;;8.37;4.43;;;;;;;9.01;72.23;96762.03;4959444;28;20464;-68
2021/04/02 06:10:46;;;;;;;6.20;3.37;;;;;;;9.20;71.28;96760.97;4962392;28;20438;-72
2021/04/02 06:13:13;;;;;;;20.50;3.70;;;;;;;9.51;70.80;96760.97;4965822;28;20523;-70
2021/04/02 06:15:40;;;;;;;12.97;4.00;;;;;;;9.84;69.45;96764.31;4964825;28;20834;-74
2021/04/02 06:18:09;;;;;;;11.83;3.43;;;;;;;10.06;68.33;96764.78;4967261;28;20455;-71
2021/04/02 06:20:40;;;;;;;7.90;3.37;;;;;;;10.23;67.32;96764.66;4965714;28;20441;-71
2021/04/02 06:23:12;;;;;;;4.30;3.03;;;;;;;10.47;66.64;96759.78;4967645;28;20955;-71
2021/04/02 06:25:46;;;;;;;14.27;3.87;;;;;;;10.54;66.08;96755.91;4965193;28;20477;-73
2021/04/02 06:28:18;;;;;;;10.40;4.13;;;;;;;10.72;65.18;96754.78;4966234;28;20475;-72
2021/04/02 06:30:48;;;;;;;6.80;3.20;;;;;;;10.84;64.60;96762.69;4967206;28;20432;-70
2021/04/02 06:33:16;;;;;;;11.27;3.83;;;;;;;10.85;63.97;96756.59;4964043;28;20794;-72
2021/04/02 06:35:45;;;;;;;16.30;3.37;;;;;;;10.97;63.34;96749.78;4979748;28;20983;-72
2021/04/02 06:38:12;;;;;;;7.57;3.30;;;;;;;11.13;63.36;96761.75;4967879;28;20504;-68
2021/04/02 06:40:39;;;;;;;9.20;3.70;;;;;;;11.28;62.56;96766.03;4963390;28;21171;-69
2021/04/02 06:43:06;;;;;;;7.63;3.73;;;;;;;11.57;61.89;96767.66;4954455;28;20837;-69
2021/04/02 06:45:34;;;;;;;7.13;3.70;;;;;;;11.72;60.99;96771.94;4945156;28;20456;-70
2021/04/02 06:48:10;;;;;;;6.60;3.90;;;;;;;12.06;60.37;96771.44;4947176;28;20810;-69
2021/04/02 06:50:38;;;;;;;9.27;3.60;;;;;;;12.23;59.78;96773.78;4944535;28;20539;-69
2021/04/02 06:53:06;;;;;;;9.97;3.53;;;;;;;12.65;58.40;96781.38;4946196;28;20463;-70
2021/04/02 06:55:37;;;;;;;10.83;5.17;;;;;;;13.00;57.66;96772.03;4947921;28;20839;-69
2021/04/02 06:58:12;;;;;;;8.00;3.23;;;;;;;13.22;56.57;96782.69;4963399;28;21020;-71
2021/04/02 07:00:40;;;;;;;5.73;3.77;;;;;;;13.61;55.28;96779.88;4948060;28;20999;-69
2021/04/02 07:03:09;;;;;;;110.63;53.50;;;;;;;13.52;55.45;96791.84;4947109;28;20483;-69
2021/04/02 07:05:36;;;;;;;16.57;8.47;;;;;;;13.96;55.85;96786.06;4954409;28;20582;-71
2021/04/02 07:08:05;;;;;;;8.60;4.33;;;;;;;14.59;53.69;96781.38;4952003;28;20956;-70
2021/04/02 07:10:35;;;;;;;8.60;4.17;;;;;;;15.08;52.65;96784.53;4956198;28;20831;-68
2021/04/02 07:13:05;;;;;;;8.40;3.80;;;;;;;15.47;50.93;96786.75;4951138;28;20558;-69
2021/04/02 07:15:34;;;;;;;8.53;4.13;;;;;;;15.63;50.89;96781.97;4963713;28;20511;-70
2021/04/02 07:18:02;;;;;;;10.27;4.67;;;;;;;15.94;50.16;96784.66;4959081;28;20950;-70
2021/04/02 07:20:30;;;;;;;12.27;4.87;;;;;;;15.75;50.06;96781.81;4950966;28;20965;-71
2021/04/02 07:22:57;;;;;;;9.67;4.93;;;;;;;16.13;49.14;96782.22;4948888;28;20469;-71
2021/04/02 07:25:25;;;;;;;8.37;5.07;;;;;;;16.57;48.33;96760.22;4958088;28;20952;-70
2021/04/02 07:28:00;;;;;;;9.03;4.60;;;;;;;17.03;47.63;96779.94;4966642;28;20820;-71
2021/04/02 07:30:31;;;;;;;8.53;4.63;;;;;;;16.88;47.31;96780.38;4967629;28;20958;-71
2021/04/02 07:33:02;;;;;;;26.50;12.77;;;;;;;17.43;47.05;96782.66;4972172;28;20911;-69
2021/04/02 07:35:29;;;;;;;49.53;28.57;;;;;;;17.97;45.67;96787.41;4968084;28;20429;-70
2021/04/02 07:37:57;;;;;;;6.67;4.90;;;;;;;18.40;44.84;96787.91;4966847;28;20844;-72
2021/04/02 07:40:27;;;;;;;18.10;5.13;;;;;;;18.59;44.72;96787.09;4967503;28;20483;-70
2021/04/02 07:42:57;;;;;;;9.57;4.73;;;;;;;18.82;44.25;96788.47;4967205;28;21033;-71
2021/04/02 07:45:27;;;;;;;8.37;3.93;;;;;;;19.47;43.50;96773.50;4968035;28;20753;-71
2021/04/02 07:47:57;;;;;;;9.20;4.90;;;;;;;20.13;42.34;96769.72;4969109;28;20523;-71
2021/04/02 07:50:47;;;;;;;10.30;4.20;;;;;;;19.57;42.63;96779.56;4969509;28;20761;-72
2021/04/02 07:53:17;;;;;;;7.73;4.43;;;;;;;19.85;42.49;96786.53;4961049;28;21032;-70
2021/04/02 07:55:49;;;;;;;8.77;3.83;;;;;;;20.32;41.49;96779.34;4971827;28;20459;-71
2021/04/02 07:58:28;;;;;;;9.70;4.87;;;;;;;20.30;41.61;96787.41;4968561;28;20464;-70
2021/04/02 08:00:56;;;;;;;7.13;4.37;;;;;;;20.38;41.28;96790.13;4968615;28;21020;-71
2021/04/02 08:03:25;;;;;;;8.30;4.50;;;;;;;20.66;40.75;96786.44;4968778;28;20930;-71
2021/04/02 08:06:10;;;;;;;11.07;4.40;;;;;;;21.06;40.14;96785.97;4966560;28;20965;-69
2021/04/02 08:08:44;;;;;;;17.23;5.00;;;;;;;20.67;40.53;96789.91;4963931;28;20465;-70
2021/04/02 08:11:20;;;;;;;10.40;5.00;;;;;;;20.81;40.45;96787.56;4970356;28;20440;-71
2021/04/02 08:13:49;;;;;;;13.30;5.40;;;;;;;20.87;40.43;96781.69;4967219;28;20761;-70
2021/04/02 08:16:39;;;;;;;9.57;5.20;;;;;;;20.09;41.04;96780.72;4969520;28;20465;-71
2021/04/02 08:19:09;;;;;;;9.30;5.07;;;;;;;19.76;41.57;96779.47;4969943;28;21222;-70
2021/04/02 08:21:38;;;;;;;7.70;4.70;;;;;;;19.55;42.17;96781.53;4970759;28;20444;-71
2021/04/02 08:24:06;;;;;;;81.63;50.07;;;;;;;18.79;44.03;96781.66;4971860;28;20826;-69
2021/04/02 08:26:35;;;;;;;48.17;28.23;;;;;;;18.89;44.37;96776.38;4969913;28;20465;-71
2021/04/02 08:29:04;;;;;;;8.80;6.60;;;;;;;18.74;43.73;96789.19;4977286;28;20487;-70
2021/04/02 08:31:31;;;;;;;10.87;6.60;;;;;;;18.34;45.22;96788.47;4967493;28;20460;-70
2021/04/02 08:33:59;;;;;;;9.17;5.30;;;;;;;18.32;45.19;96790.41;4973484;28;20468;-71
2021/04/02 08:36:28;;;;;;;10.10;5.93;;;;;;;18.02;45.98;96782.56;4973057;28;20444;-69
2021/04/02 08:38:55;;;;;;;9.30;6.17;;;;;;;17.75;46.69;96779.72;4959280;28;20458;-69
2021/04/02 08:41:25;;;;;;;11.13;6.20;;;;;;;17.59;46.96;96787.28;4958061;28;21030;-70
2021/04/02 08:43:52;;;;;;;10.57;6.40;;;;;;;17.60;47.12;96791.59;4949574;28;21030;-69
2021/04/02 08:46:41;;;;;;;8.23;5.53;;;;;;;17.49;47.10;96786.41;4960934;28;20445;-69
2021/04/02 08:49:09;;;;;;;10.33;5.80;;;;;;;17.18;47.25;96777.78;4970963;28;20846;-70
2021/04/02 08:51:36;;;;;;;11.17;7.27;;;;;;;17.03;48.62;96782.56;4971702;28;20831;-71
2021/04/02 08:54:10;;;;;;;13.07;6.93;;;;;;;17.33;47.55;96778.13;4967792;28;20484;-70
2021/04/02 08:56:38;;;;;;;23.47;7.33;;;;;;;16.98;48.07;96778.63;4971435;28;20441;-71
2021/04/02 08:59:09;;;;;;;8.63;6.00;;;;;;;16.28;49.09;96782.78;4968785;28;20816;-72
2021/04/02 09:01:42;;;;;;;33.23;22.00;;;;;;;16.59;48.84;96780.19;4965699;28;20914;-72
2021/04/02 09:04:10;;;;;;;66.53;37.60;;;;;;;16.13;50.45;96786.66;4966619;28;20951;-73
2021/04/02 09:06:38;;;;;;;11.10;6.67;;;;;;;16.09;50.32;96785.22;4967170;28;20437;-72
2021/04/02 09:09:15;;;;;;;12.00;6.93;;;;;;;16.11;50.21;96783.28;4969231;28;20711;-73
2021/04/02 09:11:43;;;;;;;11.80;6.87;;;;;;;15.86;49.88;96783.59;4969776;28;20488;-71
2021/04/02 09:14:11;;;;;;;14.20;6.83;;;;;;;15.62;50.83;96775.06;4967247;28;20946;-71
2021/04/02 09:16:41;;;;;;;13.97;7.20;;;;;;;15.48;50.37;96777.94;4968351;28;20445;-71
2021/04/02 09:19:09;;;;;;;11.27;6.43;;;;;;;15.42;51.04;96783.66;4969423;28;21040;-71
2021/04/02 09:21:51;;;;;;;10.00;6.03;;;;;;;16.09;50.93;96785.22;4969819;28;21096;-71
2021/04/02 09:24:18;;;;;;;11.80;6.97;;;;;;;16.34;49.55;96788.34;4967902;28;20480;-70
2021/04/02 09:26:45;;;;;;;11.53;5.67;;;;;;;16.38;48.50;96786.34;4966154;28;20466;-71
2021/04/02 09:29:14;;;;;;;9.00;6.30;;;;;;;16.10;49.28;96789.50;4974227;28;20959;-72
2021/04/02 09:31:43;;;;;;;12.00;6.43;;;;;;;16.30;50.10;96789.59;4970667;28;20620;-72
2021/04/02 09:34:13;;;;;;;12.63;7.17;;;;;;;17.04;48.89;96781.59;4967462;28;20848;-71
2021/04/02 09:36:42;;;;;;;13.00;7.20;;;;;;;17.51;47.73;96780.19;4966395;28;20437;-70
2021/04/02 09:39:12;;;;;;;8.67;6.00;;;;;;;18.07;47.63;96784.78;4955351;28;20464;-72
2021/04/02 09:41:42;;;;;;;8.90;5.93;;;;;;;18.14;46.17;96785.91;4949574;28;20481;-72
2021/04/02 09:44:11;;;;;;;9.90;5.63;;;;;;;18.49;45.82;96787.09;4961505;28;20473;-71
2021/04/02 09:46:40;;;;;;;16.60;6.07;;;;;;;18.92;45.04;96784.00;4948094;28;20996;-70
2021/04/02 09:49:10;;;;;;;15.17;6.40;;;;;;;18.90;43.83;96780.69;4950296;28;20950;-71
2021/04/02 09:51:40;;;;;;;16.23;7.20;;;;;;;18.58;44.73;96786.25;4938635;28;20793;-71
2021/04/02 09:54:09;;;;;;;9.23;5.90;;;;;;;18.65;45.04;96784.72;4938240;28;20977;-72
2021/04/02 09:56:37;;;;;;;11.07;6.67;;;;;;;19.03;44.03;96784.69;4954305;28;20898;-72
2021/04/02 09:59:06;;;;;;;18.10;6.73;;;;;;;19.23;43.94;96786.34;4937394;28;20553;-72
2021/04/02 10:01:34;;;;;;;19.77;7.10;;;;;;;19.22;43.22;96766.19;4961852;28;20458;-71
2021/04/02 10:04:05;;;;;;;9.77;6.53;;;;;;;19.75;42.98;96788.38;4947235;28;20965;-71
2021/04/02 10:06:34;;;;;;;14.60;7.03;;;;;;;19.78;43.46;96766.97;4948650;28;21041;-71
2021/04/02 10:09:01;;;;;;;9.10;6.63;;;;;;;20.11;42.11;96787.50;4936034;28;21012;-72
2021/04/02 10:11:28;;;;;;;9.90;6.40;;;;;;;20.32;41.57;96789.91;4952106;28;20926;-71
2021/04/02 10:13:55;;;;;;;7.87;5.70;;;;;;;20.23;41.63;96786.34;4939832;28;21068;-71
2021/04/02 10:16:22;;;;;;;8.93;5.83;;;;;;;19.90;42.07;96789.53;4946156;28;20472;-72
2021/04/02 10:18:50;;;;;;;10.60;5.43;;;;;;;19.83;41.11;96787.66;4947995;28;21008;-71
2021/04/02 10:21:17;;;;;;;9.23;6.00;;;;;;;19.25;42.12;96787.03;4946027;28;20429;-70
2021/04/02 10:23:45;;;;;;;9.03;6.00;;;;;;;19.49;42.82;96778.59;4945868;28;20469;-72
2021/04/02 10:26:13;;;;;;;8.57;5.90;;;;;;;19.44;43.16;96781.69;4962869;28;20512;-72
2021/04/02 10:28:40;;;;;;;8.23;6.57;;;;;;;19.98;42.16;96780.88;4963620;28;20466;-71
2021/04/02 10:31:08;;;;;;;10.73;6.47;;;;;;;19.46;42.71;96777.09;4964316;28;20806;-71
2021/04/02 10:33:35;;;;;;;10.30;5.97;;;;;;;19.09;43.68;96775.38;4966589;28;20469;-69
2021/04/02 10:36:03;;;;;;;11.73;6.47;;;;;;;18.88;44.85;96777.34;4968025;28;20795;-72
2021/04/02 10:38:30;;;;;;;11.07;7.73;;;;;;;19.02;44.25;96769.81;4968363;28;20794;-70
2021/04/02 10:40:59;;;;;;;7.50;6.50;;;;;;;19.56;43.25;96780.53;4968575;28;20438;-71
2021/04/02 10:43:26;;;;;;;22.50;14.23;;;;;;;19.56;42.40;96775.25;4967658;28;20932;-73
2021/04/02 10:45:54;;;;;;;10.47;7.17;;;;;;;19.64;41.08;96772.72;4967668;28;20799;-70
2021/04/02 10:48:21;;;;;;;11.00;6.33;;;;;;;19.64;41.18;96762.16;4966608;28;21022;-71
2021/04/02 10:50:48;;;;;;;10.70;5.47;;;;;;;19.64;41.18;96762.16;4971531;28;20930;-71
2021/04/02 10:53:16;;;;;;;8.00;5.93;;;;;;;20.54;40.30;96770.94;4968436;28;20493;-72
2021/04/02 10:55:44;;;;;;;9.70;6.30;;;;;;;20.67;39.85;96761.63;4967582;28;20710;-71
2021/04/02 10:58:12;;;;;;;10.63;5.97;;;;;;;20.52;40.27;96759.66;4969662;28;20464;-72
2021/04/02 11:00:40;;;;;;;7.20;6.07;;;;;;;20.84;40.79;96762.59;4971700;28;20444;-73
2021/04/02 11:03:09;;;;;;;9.70;5.77;;;;;;;20.96;39.89;96758.75;4968707;28;20851;-72
2021/04/02 11:05:37;;;;;;;8.83;5.67;;;;;;;21.34;39.91;96759.19;4969911;28;20883;-72
2021/04/02 11:08:05;;;;;;;7.43;5.23;;;;;;;22.06;39.08;96756.06;4967078;28;20956;-70
2021/04/02 11:10:33;;;;;;;10.83;5.87;;;;;;;22.21;38.13;96765.88;4967199;28;20913;-72
2021/04/02 11:13:00;;;;;;;8.20;5.77;;;;;;;22.22;37.33;96759.59;4968729;28;20844;-71
2021/04/02 11:15:28;;;;;;;8.00;4.87;;;;;;;22.55;35.94;96758.69;4971095;28;20820;-72
2021/04/02 11:17:55;;;;;;;6.63;5.33;;;;;;;22.08;36.96;96754.91;4970593;28;20514;-72
2021/04/02 11:20:25;;;;;;;7.73;6.40;;;;;;;22.31;37.37;96750.66;4970402;28;20950;-71
2021/04/02 11:22:52;;;;;;;8.93;5.57;;;;;;;22.87;36.50;96750.72;4967400;28;20965;-72
2021/04/02 11:25:19;;;;;;;9.60;5.30;;;;;;;22.30;37.77;96743.69;4982831;28;21020;-71
2021/04/02 11:27:46;;;;;;;9.00;5.50;;;;;;;22.68;37.07;96745.75;4967990;28;20952;-71
2021/04/02 11:30:17;;;;;;;7.57;5.47;;;;;;;23.12;36.26;96741.75;4967912;28;20760;-71
2021/04/02 11:32:45;;;;;;;8.10;5.47;;;;;;;22.66;36.46;96739.78;4966873;28;20793;-71
2021/04/02 11:35:13;;;;;;;6.27;4.63;;;;;;;22.68;37.72;96737.78;4969636;28;20465;-73
2021/04/02 11:37:41;;;;;;;8.10;5.53;;;;;;;22.75;35.95;96738.78;4970371;28;20986;-71